createdAt,value
2019-03-30T00:00:20.190Z,10.87
2019-03-30T00:01:20.167Z,10.79
2019-03-30T00:02:20.153Z,10.77
2019-03-30T00:03:20.127Z,10.69
2019-03-30T00:04:20.109Z,10.71
2019-03-30T00:05:20.089Z,10.72
2019-03-30T00:06:20.126Z,10.69
2019-03-30T00:07:20.041Z,10.58
2019-03-30T00:08:20.038Z,10.67
2019-03-30T00:09:19.999Z,10.71
2019-03-30T00:10:19.976Z,10.72
2019-03-30T00:11:19.954Z,10.57
2019-03-30T00:12:22.952Z,10.62
2019-03-30T00:13:19.914Z,10.59
2019-03-30T00:14:19.893Z,10.65
2019-03-30T00:15:19.883Z,10.58
2019-03-30T00:16:19.850Z,10.58
2019-03-30T00:17:19.836Z,10.58
2019-03-30T00:18:19.807Z,10.57
2019-03-30T00:19:19.785Z,10.53
2019-03-30T00:20:19.765Z,10.45
2019-03-30T00:21:19.742Z,10.53
2019-03-30T00:22:19.730Z,10.43
2019-03-30T00:23:19.716Z,10.42
2019-03-30T00:24:19.677Z,10.43
2019-03-30T00:25:19.656Z,10.41
2019-03-30T00:26:19.633Z,10.48
2019-03-30T00:27:19.614Z,10.49
2019-03-30T00:28:19.592Z,10.38
2019-03-30T00:29:19.577Z,10.42
2019-03-30T00:30:19.549Z,10.38
2019-03-30T00:31:19.525Z,10.39
2019-03-30T00:32:19.505Z,10.31
2019-03-30T00:33:19.485Z,10.39
2019-03-30T00:34:19.461Z,10.39
2019-03-30T00:35:19.439Z,10.34
2019-03-30T00:36:19.418Z,10.38
2019-03-30T00:37:19.401Z,10.33
2019-03-30T00:38:19.378Z,10.34
2019-03-30T00:39:19.353Z,10.31
2019-03-30T00:40:19.336Z,10.36
2019-03-30T00:41:19.315Z,10.41
2019-03-30T00:42:19.296Z,10.34
2019-03-30T00:43:19.265Z,10.36
2019-03-30T00:44:19.246Z,10.36
2019-03-30T00:45:19.223Z,10.34
2019-03-30T00:46:19.205Z,10.41
2019-03-30T00:47:19.179Z,10.38
2019-03-30T00:48:19.166Z,10.34
2019-03-30T00:49:19.135Z,10.27
2019-03-30T00:50:19.117Z,10.34
2019-03-30T00:51:19.092Z,10.28
2019-03-30T00:52:19.074Z,10.24
2019-03-30T00:53:19.056Z,10.25
2019-03-30T00:54:19.028Z,10.20
2019-03-30T00:55:19.013Z,10.24
2019-03-30T00:56:18.987Z,10.25
2019-03-30T00:57:18.960Z,10.24
2019-03-30T00:58:18.941Z,10.18
2019-03-30T00:59:18.917Z,10.25
2019-03-30T01:00:18.896Z,10.25
2019-03-30T01:01:18.875Z,10.20
2019-03-30T01:02:18.851Z,10.28
2019-03-30T01:03:18.830Z,10.23
2019-03-30T01:04:18.820Z,10.18
2019-03-30T01:05:18.788Z,10.15
2019-03-30T01:06:18.766Z,10.21
2019-03-30T01:07:18.744Z,10.23
2019-03-30T01:08:18.728Z,10.12
2019-03-30T01:09:18.748Z,10.18
2019-03-30T01:10:18.678Z,10.13
2019-03-30T01:11:18.659Z,10.15
2019-03-30T01:12:18.646Z,10.24
2019-03-30T01:13:18.611Z,10.07
2019-03-30T01:14:18.589Z,10.13
2019-03-30T01:15:18.567Z,10.12
2019-03-30T01:16:18.546Z,10.12
2019-03-30T01:17:18.530Z,10.06
2019-03-30T01:18:18.503Z,10.07
2019-03-30T01:19:18.482Z,10.10
2019-03-30T01:20:18.457Z,10.05
2019-03-30T01:21:18.439Z,10.05
2019-03-30T01:22:18.422Z,9.99
2019-03-30T01:23:18.393Z,10.00
2019-03-30T01:24:18.373Z,10.07
2019-03-30T01:25:18.348Z,9.97
2019-03-30T01:26:18.332Z,9.97
2019-03-30T01:27:18.304Z,9.92
2019-03-30T01:28:18.342Z,9.91
2019-03-30T01:29:18.262Z,9.90
2019-03-30T01:30:23.203Z,9.92
2019-03-30T01:31:18.321Z,9.81
2019-03-30T01:32:18.196Z,9.76
2019-03-30T01:33:18.268Z,9.80
2019-03-30T01:34:18.150Z,9.82
2019-03-30T01:35:18.267Z,9.85
2019-03-30T01:36:18.105Z,9.81
2019-03-30T01:37:18.083Z,9.84
2019-03-30T01:38:18.059Z,9.84
2019-03-30T01:39:18.039Z,9.81
2019-03-30T01:40:18.020Z,9.87
2019-03-30T01:41:17.994Z,9.81
2019-03-30T01:42:17.972Z,9.82
2019-03-30T01:43:17.950Z,9.84
2019-03-30T01:44:17.931Z,9.73
2019-03-30T01:45:17.906Z,9.74
2019-03-30T01:46:17.890Z,9.74
2019-03-30T01:47:17.860Z,9.77
2019-03-30T01:48:17.839Z,9.74
2019-03-30T01:49:17.821Z,9.81
2019-03-30T01:50:18.241Z,9.81
2019-03-30T01:51:17.773Z,9.76
2019-03-30T01:52:17.757Z,9.67
2019-03-30T01:53:17.729Z,9.74
2019-03-30T01:54:17.706Z,9.77
2019-03-30T01:55:17.684Z,9.73
2019-03-30T01:57:11.744Z,9.70
2019-03-30T01:58:11.725Z,9.76
2019-03-30T01:59:11.700Z,9.70
2019-03-30T02:00:11.685Z,9.70
2019-03-30T02:01:11.656Z,9.74
2019-03-30T02:02:11.642Z,9.74
2019-03-30T02:03:11.611Z,9.72
2019-03-30T02:04:11.594Z,9.72
2019-03-30T02:05:11.572Z,9.80
2019-03-30T02:06:11.544Z,9.67
2019-03-30T02:07:11.522Z,9.67
2019-03-30T02:08:11.500Z,9.66
2019-03-30T02:09:11.482Z,9.74
2019-03-30T02:10:11.456Z,9.70
2019-03-30T02:11:11.431Z,9.66
2019-03-30T02:12:11.409Z,9.58
2019-03-30T02:13:11.389Z,9.66
2019-03-30T02:14:11.366Z,9.59
2019-03-30T02:15:11.345Z,9.58
2019-03-30T02:16:11.324Z,9.59
2019-03-30T02:17:11.304Z,9.59
2019-03-30T02:18:11.278Z,9.63
2019-03-30T02:19:11.256Z,9.63
2019-03-30T02:20:11.238Z,9.63
2019-03-30T02:21:11.210Z,9.58
2019-03-30T02:22:11.390Z,9.52
2019-03-30T02:23:11.166Z,9.52
2019-03-30T02:24:11.143Z,9.56
2019-03-30T02:25:11.142Z,9.54
2019-03-30T02:26:11.102Z,9.59
2019-03-30T02:27:11.086Z,9.62
2019-03-30T02:28:11.053Z,9.59
2019-03-30T02:29:11.033Z,9.63
2019-03-30T02:30:11.011Z,9.52
2019-03-30T02:31:10.993Z,9.52
2019-03-30T02:32:10.966Z,9.59
2019-03-30T02:33:10.950Z,9.62
2019-03-30T02:34:10.931Z,9.66
2019-03-30T02:35:10.902Z,9.58
2019-03-30T02:36:10.877Z,9.59
2019-03-30T02:37:10.854Z,9.63
2019-03-30T02:38:10.838Z,9.72
2019-03-30T02:39:10.812Z,9.66
2019-03-30T02:40:10.855Z,9.66
2019-03-30T02:41:10.772Z,9.74
2019-03-30T02:42:10.743Z,9.76
2019-03-30T02:43:10.718Z,9.76
2019-03-30T02:44:10.713Z,9.72
2019-03-30T02:45:10.672Z,9.76
2019-03-30T02:46:10.687Z,9.74
2019-03-30T02:47:10.631Z,9.73
2019-03-30T02:48:10.604Z,9.74
2019-03-30T02:49:10.583Z,9.80
2019-03-30T02:50:10.566Z,9.74
2019-03-30T02:51:10.547Z,9.70
2019-03-30T02:52:10.513Z,9.63
2019-03-30T02:53:10.492Z,9.66
2019-03-30T02:54:10.471Z,9.64
2019-03-30T02:55:12.686Z,9.59
2019-03-30T02:56:10.431Z,9.51
2019-03-30T02:57:10.409Z,9.56
2019-03-30T02:58:10.390Z,9.48
2019-03-30T02:59:10.358Z,9.47
2019-03-30T03:00:10.334Z,9.52
2019-03-30T03:01:10.311Z,9.48
2019-03-30T03:02:10.289Z,9.39
2019-03-30T03:03:10.271Z,9.44
2019-03-30T03:04:10.241Z,9.39
2019-03-30T03:05:10.270Z,9.31
2019-03-30T03:06:10.197Z,9.37
2019-03-30T03:07:10.175Z,9.33
2019-03-30T03:08:10.152Z,9.33
2019-03-30T03:09:10.129Z,9.31
2019-03-30T03:10:10.108Z,9.33
2019-03-30T03:11:10.086Z,9.26
2019-03-30T03:12:10.060Z,9.29
2019-03-30T03:13:10.049Z,9.27
2019-03-30T03:14:10.019Z,9.19
2019-03-30T03:15:09.993Z,9.24
2019-03-30T03:16:09.971Z,9.18
2019-03-30T03:17:09.949Z,9.26
2019-03-30T03:18:09.935Z,9.16
2019-03-30T03:19:09.912Z,9.18
2019-03-30T03:20:09.880Z,9.21
2019-03-30T03:21:09.864Z,9.16
2019-03-30T03:22:09.837Z,9.12
2019-03-30T03:23:09.812Z,9.19
2019-03-30T03:24:09.789Z,9.13
2019-03-30T03:25:09.767Z,9.09
2019-03-30T03:26:09.741Z,8.99
2019-03-30T03:27:09.721Z,9.05
2019-03-30T03:28:09.868Z,9.09
2019-03-30T03:29:09.678Z,9.08
2019-03-30T03:30:09.700Z,9.02
2019-03-30T03:31:09.628Z,9.05
2019-03-30T03:32:09.605Z,8.99
2019-03-30T03:33:09.605Z,9.02
2019-03-30T03:34:09.559Z,9.03
2019-03-30T03:35:09.536Z,9.05
2019-03-30T03:36:09.510Z,8.97
2019-03-30T03:37:09.498Z,9.09
2019-03-30T03:38:09.465Z,9.03
2019-03-30T03:39:09.445Z,9.02
2019-03-30T03:40:09.423Z,9.05
2019-03-30T03:41:09.399Z,8.89
2019-03-30T03:42:09.380Z,8.97
2019-03-30T03:43:09.370Z,9.03
2019-03-30T03:44:09.329Z,8.93
2019-03-30T03:45:09.306Z,8.96
2019-03-30T03:46:09.286Z,8.97
2019-03-30T03:47:09.276Z,8.89
2019-03-30T03:48:09.268Z,8.95
2019-03-30T03:49:09.211Z,8.84
2019-03-30T03:50:09.189Z,8.81
2019-03-30T03:51:24.840Z,8.82
2019-03-30T03:52:09.141Z,8.95
2019-03-30T03:53:09.121Z,8.95
2019-03-30T03:54:09.099Z,8.86
2019-03-30T03:55:09.074Z,8.86
2019-03-30T03:56:09.051Z,8.97
2019-03-30T03:57:09.025Z,8.90
2019-03-30T03:58:09.008Z,8.92
2019-03-30T03:59:08.982Z,8.82
2019-03-30T04:00:09.061Z,8.93
2019-03-30T04:01:08.934Z,8.89
2019-03-30T04:02:08.911Z,8.86
2019-03-30T04:03:08.889Z,8.87
2019-03-30T04:04:08.867Z,8.86
2019-03-30T04:05:08.843Z,8.81
2019-03-30T04:06:08.822Z,8.79
2019-03-30T04:07:08.805Z,8.84
2019-03-30T04:08:08.785Z,8.87
2019-03-30T04:09:08.753Z,8.86
2019-03-30T04:10:08.729Z,8.79
2019-03-30T04:11:08.733Z,8.89
2019-03-30T04:12:08.686Z,8.82
2019-03-30T04:13:08.666Z,8.84
2019-03-30T04:14:08.649Z,8.78
2019-03-30T04:15:08.614Z,8.82
2019-03-30T04:16:08.603Z,8.81
2019-03-30T04:17:08.591Z,8.86
2019-03-30T04:18:08.543Z,8.89
2019-03-30T04:19:08.522Z,8.86
2019-03-30T04:20:08.501Z,8.75
2019-03-30T04:21:08.575Z,8.82
2019-03-30T04:22:08.451Z,8.87
2019-03-30T04:23:08.431Z,8.82
2019-03-30T04:24:08.410Z,8.89
2019-03-30T04:25:08.381Z,8.84
2019-03-30T04:26:08.364Z,8.84
2019-03-30T04:27:08.345Z,8.72
2019-03-30T04:28:08.322Z,8.74
2019-03-30T04:29:08.291Z,8.77
2019-03-30T04:30:08.378Z,8.81
2019-03-30T04:31:08.251Z,8.86
2019-03-30T04:32:08.223Z,8.87
2019-03-30T04:33:08.203Z,8.87
2019-03-30T04:34:08.175Z,8.90
2019-03-30T04:35:08.160Z,8.89
2019-03-30T04:36:08.126Z,8.82
2019-03-30T04:37:08.110Z,8.82
2019-03-30T04:38:08.081Z,8.86
2019-03-30T04:39:08.058Z,8.82
2019-03-30T04:40:08.035Z,8.81
2019-03-30T04:41:08.087Z,8.79
2019-03-30T04:42:07.988Z,8.78
2019-03-30T04:43:07.967Z,8.74
2019-03-30T04:44:07.943Z,8.75
2019-03-30T04:45:07.922Z,8.84
2019-03-30T04:46:07.900Z,8.78
2019-03-30T04:47:07.873Z,8.86
2019-03-30T04:48:07.862Z,8.82
2019-03-30T04:49:07.829Z,8.87
2019-03-30T04:50:07.808Z,8.75
2019-03-30T04:51:07.779Z,8.77
2019-03-30T04:52:07.756Z,8.79
2019-03-30T04:53:07.733Z,8.90
2019-03-30T04:54:07.711Z,8.93
2019-03-30T04:55:07.697Z,8.90
2019-03-30T04:56:07.663Z,8.87
2019-03-30T04:57:07.639Z,8.89
2019-03-30T04:58:09.322Z,8.87
2019-03-30T04:59:07.595Z,8.89
2019-03-30T05:00:07.570Z,8.92
2019-03-30T05:01:07.547Z,8.90
2019-03-30T05:02:07.530Z,8.97
2019-03-30T05:03:07.503Z,8.87
2019-03-30T05:04:07.482Z,8.99
2019-03-30T05:05:07.454Z,8.97
2019-03-30T05:06:07.448Z,8.97
2019-03-30T05:07:07.409Z,9.00
2019-03-30T05:08:07.384Z,8.87
2019-03-30T05:09:07.370Z,8.97
2019-03-30T05:10:07.338Z,8.90
2019-03-30T05:11:07.315Z,8.87
2019-03-30T05:12:07.291Z,8.82
2019-03-30T05:13:07.275Z,8.77
2019-03-30T05:14:07.246Z,8.82
2019-03-30T05:15:07.221Z,8.78
2019-03-30T05:16:07.198Z,8.89
2019-03-30T05:17:07.174Z,8.86
2019-03-30T05:18:07.153Z,8.84
2019-03-30T05:19:07.130Z,8.86
2019-03-30T05:20:07.116Z,8.95
2019-03-30T05:21:07.083Z,8.99
2019-03-30T05:22:13.556Z,9.02
2019-03-30T05:23:07.035Z,8.92
2019-03-30T05:24:07.011Z,8.89
2019-03-30T05:25:06.991Z,8.86
2019-03-30T05:26:06.965Z,8.86
2019-03-30T05:27:06.941Z,8.81
2019-03-30T05:28:06.969Z,8.75
2019-03-30T05:29:06.896Z,8.86
2019-03-30T05:30:06.871Z,8.77
2019-03-30T05:31:06.850Z,8.86
2019-03-30T05:32:06.824Z,8.82
2019-03-30T05:33:06.801Z,8.81
2019-03-30T05:34:06.780Z,8.87
2019-03-30T05:35:06.754Z,8.92
2019-03-30T05:36:06.738Z,8.96
2019-03-30T05:37:06.708Z,8.96
2019-03-30T05:38:06.684Z,8.92
2019-03-30T05:39:06.662Z,8.97
2019-03-30T05:40:06.642Z,8.97
2019-03-30T05:41:06.614Z,8.95
2019-03-30T05:42:06.591Z,8.92
2019-03-30T05:43:06.577Z,8.95
2019-03-30T05:44:06.545Z,8.92
2019-03-30T05:45:06.525Z,8.93
2019-03-30T05:46:06.499Z,8.95
2019-03-30T05:47:06.478Z,8.86
2019-03-30T05:48:06.454Z,8.89
2019-03-30T05:49:06.432Z,8.93
2019-03-30T05:50:06.413Z,9.03
2019-03-30T05:51:06.383Z,8.97
2019-03-30T05:52:06.364Z,8.99
2019-03-30T05:53:06.347Z,8.96
2019-03-30T05:54:06.313Z,8.93
2019-03-30T05:55:06.300Z,8.90
2019-03-30T05:56:06.280Z,9.03
2019-03-30T05:57:06.244Z,9.08
2019-03-30T05:58:06.224Z,9.15
2019-03-30T05:59:06.198Z,9.09
2019-03-30T06:00:06.174Z,9.12
2019-03-30T06:01:06.153Z,9.11
2019-03-30T06:02:06.129Z,9.12
2019-03-30T06:03:06.106Z,9.18
2019-03-30T06:04:06.079Z,9.12
2019-03-30T06:05:06.062Z,9.27
2019-03-30T06:06:06.038Z,9.22
2019-03-30T06:07:06.011Z,9.22
2019-03-30T06:08:05.995Z,9.19
2019-03-30T06:09:05.966Z,9.21
2019-03-30T06:10:05.941Z,9.19
2019-03-30T06:11:05.918Z,9.27
2019-03-30T06:12:05.897Z,9.30
2019-03-30T06:13:05.872Z,9.27
2019-03-30T06:14:05.851Z,9.44
2019-03-30T06:15:05.835Z,9.42
2019-03-30T06:16:05.807Z,9.40
2019-03-30T06:17:05.781Z,9.45
2019-03-30T06:18:05.757Z,9.44
2019-03-30T06:19:05.734Z,9.48
2019-03-30T06:20:05.713Z,9.48
2019-03-30T06:21:05.687Z,9.40
2019-03-30T06:22:05.666Z,9.48
2019-03-30T06:23:05.642Z,9.58
2019-03-30T06:24:05.625Z,9.52
2019-03-30T06:25:05.602Z,9.63
2019-03-30T06:26:05.585Z,9.64
2019-03-30T06:27:05.548Z,9.64
2019-03-30T06:28:05.524Z,9.63
2019-03-30T06:29:05.510Z,9.80
2019-03-30T06:30:05.479Z,9.74
2019-03-30T06:31:05.457Z,9.74
2019-03-30T06:32:05.433Z,9.80
2019-03-30T06:33:05.409Z,9.77
2019-03-30T06:34:05.388Z,9.74
2019-03-30T06:35:05.365Z,9.88
2019-03-30T06:36:05.342Z,9.77
2019-03-30T06:37:05.319Z,9.91
2019-03-30T06:38:05.296Z,10.07
2019-03-30T06:39:05.273Z,9.99
2019-03-30T06:40:05.260Z,10.09
2019-03-30T06:41:05.227Z,10.09
2019-03-30T06:42:05.206Z,10.10
2019-03-30T06:43:07.737Z,10.17
2019-03-30T06:44:05.168Z,10.06
2019-03-30T06:45:05.135Z,10.17
2019-03-30T06:46:05.113Z,10.18
2019-03-30T06:47:05.092Z,10.18
2019-03-30T06:48:05.070Z,10.17
2019-03-30T06:49:05.046Z,10.20
2019-03-30T06:50:05.030Z,10.21
2019-03-30T06:51:05.009Z,10.27
2019-03-30T06:52:04.975Z,10.31
2019-03-30T06:53:04.953Z,10.33
2019-03-30T06:54:04.934Z,10.39
2019-03-30T06:55:04.908Z,10.36
2019-03-30T06:56:04.895Z,10.43
2019-03-30T06:57:04.863Z,10.39
2019-03-30T06:58:04.841Z,10.59
2019-03-30T06:59:04.822Z,10.59
2019-03-30T07:00:04.836Z,10.61
2019-03-30T07:01:04.782Z,10.62
2019-03-30T07:02:04.757Z,10.55
2019-03-30T07:03:04.726Z,10.76
2019-03-30T07:04:04.708Z,10.69
2019-03-30T07:05:04.682Z,10.71
2019-03-30T07:06:04.660Z,10.72
2019-03-30T07:07:04.636Z,10.77
2019-03-30T07:08:04.618Z,10.72
2019-03-30T07:09:04.594Z,10.79
2019-03-30T07:10:04.573Z,10.82
2019-03-30T07:11:04.547Z,10.83
2019-03-30T07:12:04.525Z,10.87
2019-03-30T07:13:04.501Z,10.84
2019-03-30T07:14:04.485Z,10.89
2019-03-30T07:15:04.487Z,11.00
2019-03-30T07:16:04.443Z,11.00
2019-03-30T07:17:04.412Z,11.00
2019-03-30T07:18:04.392Z,11.05
2019-03-30T07:19:04.379Z,11.10
2019-03-30T07:20:04.348Z,11.13
2019-03-30T07:21:04.324Z,11.20
2019-03-30T07:22:04.302Z,11.20
2019-03-30T07:23:11.776Z,11.30
2019-03-30T07:24:04.256Z,11.23
2019-03-30T07:25:04.237Z,11.45
2019-03-30T07:26:04.219Z,11.45
2019-03-30T07:27:04.191Z,11.44
2019-03-30T07:28:04.174Z,11.56
2019-03-30T07:29:04.147Z,11.55
2019-03-30T07:30:04.123Z,11.60
2019-03-30T07:31:04.113Z,11.62
2019-03-30T07:32:04.080Z,11.71
2019-03-30T07:33:04.061Z,11.74
2019-03-30T07:34:04.037Z,11.78
2019-03-30T07:35:04.018Z,11.86
2019-03-30T07:36:03.997Z,11.83
2019-03-30T07:37:03.983Z,11.95
2019-03-30T07:38:03.957Z,11.93
2019-03-30T07:39:03.928Z,11.96
2019-03-30T07:40:03.910Z,12.03
2019-03-30T07:41:03.892Z,12.03
2019-03-30T07:42:03.868Z,12.08
2019-03-30T07:43:03.842Z,12.10
2019-03-30T07:44:03.825Z,12.14
2019-03-30T07:45:03.804Z,12.21
2019-03-30T07:46:03.790Z,12.29
2019-03-30T07:47:03.767Z,12.29
2019-03-30T07:48:03.735Z,12.32
2019-03-30T07:49:03.720Z,12.37
2019-03-30T07:50:03.689Z,12.61
2019-03-30T07:51:03.677Z,12.86
2019-03-30T07:52:03.651Z,12.90
2019-03-30T07:53:03.625Z,13.08
2019-03-30T07:54:03.605Z,13.33
2019-03-30T07:55:03.591Z,13.52
2019-03-30T07:56:08.651Z,13.67
2019-03-30T07:57:05.511Z,13.85
2019-03-30T07:58:03.546Z,14.13
2019-03-30T07:59:03.500Z,14.40
2019-03-30T08:00:03.479Z,14.73
2019-03-30T08:01:03.459Z,15.00
2019-03-30T08:02:03.450Z,15.19
2019-03-30T08:03:03.422Z,15.48
2019-03-30T08:04:03.399Z,15.83
2019-03-30T08:05:03.382Z,15.92
2019-03-30T08:06:03.359Z,16.16
2019-03-30T08:07:03.344Z,16.24
2019-03-30T08:08:03.331Z,16.37
2019-03-30T08:09:03.298Z,16.39
2019-03-30T08:10:03.286Z,16.32
2019-03-30T08:11:03.260Z,16.21
2019-03-30T08:12:03.240Z,16.28
2019-03-30T08:13:03.231Z,16.32
2019-03-30T08:14:03.204Z,16.32
2019-03-30T08:15:03.186Z,16.29
2019-03-30T08:16:03.268Z,16.29
2019-03-30T08:17:03.147Z,16.36
2019-03-30T08:18:03.129Z,16.50
2019-03-30T08:19:03.110Z,16.32
2019-03-30T08:20:03.094Z,16.34
2019-03-30T08:21:03.076Z,16.41
2019-03-30T08:22:03.067Z,16.50
2019-03-30T08:23:13.812Z,16.44
2019-03-30T08:24:03.029Z,16.50
2019-03-30T08:25:03.007Z,16.65
2019-03-30T08:26:02.989Z,16.74
2019-03-30T08:27:02.972Z,16.83
2019-03-30T08:28:02.960Z,17.02
2019-03-30T08:29:02.948Z,17.30
2019-03-30T08:30:02.922Z,17.28
2019-03-30T08:31:02.909Z,17.47
2019-03-30T08:32:02.891Z,17.60
2019-03-30T08:33:02.878Z,17.66
2019-03-30T08:34:02.861Z,17.84
2019-03-30T08:35:02.844Z,18.09
2019-03-30T08:36:02.829Z,18.21
2019-03-30T08:37:02.821Z,18.26
2019-03-30T08:38:02.796Z,18.53
2019-03-30T08:39:02.793Z,18.39
2019-03-30T08:40:02.773Z,18.57
2019-03-30T08:41:02.756Z,18.81
2019-03-30T08:42:02.735Z,19.04
2019-03-30T08:43:02.770Z,19.20
2019-03-30T08:44:02.710Z,19.09
2019-03-30T08:45:02.690Z,18.91
2019-03-30T08:46:02.675Z,18.76
2019-03-30T08:47:02.667Z,18.64
2019-03-30T08:48:02.653Z,18.81
2019-03-30T08:49:02.630Z,18.85
2019-03-30T08:50:02.631Z,18.82
2019-03-30T08:51:02.600Z,18.71
2019-03-30T08:52:02.587Z,18.79
2019-03-30T08:53:02.577Z,18.55
2019-03-30T08:54:02.567Z,18.76
2019-03-30T08:55:02.550Z,18.88
2019-03-30T08:56:02.530Z,18.98
2019-03-30T08:57:02.523Z,19.24
2019-03-30T08:58:02.505Z,19.07
2019-03-30T08:59:02.491Z,19.27
2019-03-30T09:00:02.484Z,19.45
2019-03-30T09:01:02.468Z,19.35
2019-03-30T09:02:02.451Z,19.71
2019-03-30T09:03:02.438Z,20.32
2019-03-30T09:04:02.434Z,20.50
2019-03-30T09:05:02.412Z,20.55
2019-03-30T09:06:02.401Z,20.55
2019-03-30T09:07:02.403Z,20.27
2019-03-30T09:08:02.379Z,20.55
2019-03-30T09:09:02.366Z,20.50
2019-03-30T09:10:02.354Z,20.58
2019-03-30T09:11:02.358Z,20.70
2019-03-30T09:12:02.336Z,21.03
2019-03-30T09:13:02.319Z,20.75
2019-03-30T09:14:02.319Z,20.75
2019-03-30T09:15:02.297Z,21.14
2019-03-30T09:16:02.285Z,21.25
2019-03-30T09:17:02.282Z,21.38
2019-03-30T09:18:02.271Z,21.37
2019-03-30T09:19:02.260Z,20.93
2019-03-30T09:20:02.257Z,21.03
2019-03-30T09:21:02.237Z,21.10
2019-03-30T09:22:02.223Z,21.38
2019-03-30T09:23:02.216Z,21.70
2019-03-30T09:24:09.394Z,21.85
2019-03-30T09:25:02.195Z,21.78
2019-03-30T09:26:02.192Z,21.65
2019-03-30T09:27:02.185Z,21.30
2019-03-30T09:28:02.164Z,21.72
2019-03-30T09:29:02.155Z,21.58
2019-03-30T09:30:02.145Z,22.12
2019-03-30T09:31:02.136Z,22.21
2019-03-30T09:32:13.551Z,22.53
2019-03-30T09:33:02.134Z,22.31
2019-03-30T09:34:02.110Z,22.22
2019-03-30T09:35:02.117Z,21.97
2019-03-30T09:36:02.301Z,22.37
2019-03-30T09:37:02.085Z,22.47
2019-03-30T09:38:02.083Z,22.56
2019-03-30T09:39:02.079Z,22.83
2019-03-30T09:40:02.060Z,22.84
2019-03-30T09:41:02.062Z,22.74
2019-03-30T09:42:02.047Z,22.63
2019-03-30T09:43:02.047Z,22.89
2019-03-30T09:44:02.039Z,22.70
2019-03-30T09:45:02.035Z,22.88
2019-03-30T09:46:02.016Z,22.71
2019-03-30T09:47:02.022Z,23.01
2019-03-30T09:48:02.005Z,23.14
2019-03-30T09:49:02.006Z,23.02
2019-03-30T09:50:02.599Z,23.13
2019-03-30T09:51:01.985Z,22.91
2019-03-30T09:52:02.078Z,23.21
2019-03-30T09:53:01.972Z,23.39
2019-03-30T09:54:01.967Z,23.71
2019-03-30T09:55:01.960Z,23.89
2019-03-30T09:56:01.973Z,23.62
2019-03-30T09:57:01.963Z,23.37
2019-03-30T09:58:01.944Z,23.16
2019-03-30T09:59:01.944Z,23.08
2019-03-30T10:00:01.943Z,23.16
2019-03-30T10:01:01.939Z,23.18
2019-03-30T10:02:01.924Z,23.37
2019-03-30T10:03:01.923Z,23.67
2019-03-30T10:04:01.914Z,23.89
2019-03-30T10:05:01.918Z,23.74
2019-03-30T10:06:01.911Z,23.44
2019-03-30T10:07:01.904Z,23.66
2019-03-30T10:08:01.904Z,23.66
2019-03-30T10:09:01.895Z,23.79
2019-03-30T10:10:01.902Z,23.84
2019-03-30T10:11:01.884Z,24.11
2019-03-30T10:12:01.877Z,23.94
2019-03-30T10:13:01.924Z,23.54
2019-03-30T10:14:01.871Z,23.33
2019-03-30T10:15:01.867Z,23.42
2019-03-30T10:16:01.863Z,23.69
2019-03-30T10:17:01.860Z,24.29
2019-03-30T10:18:01.869Z,24.19
2019-03-30T10:19:01.851Z,24.14
2019-03-30T10:20:04.564Z,24.31
2019-03-30T10:21:01.842Z,24.51
2019-03-30T10:22:02.334Z,24.28
2019-03-30T10:23:01.836Z,24.04
2019-03-30T10:24:01.831Z,24.10
2019-03-30T10:25:01.827Z,24.16
2019-03-30T10:26:01.822Z,24.36
2019-03-30T10:27:01.823Z,24.06
2019-03-30T10:28:01.824Z,24.37
2019-03-30T10:29:01.813Z,24.16
2019-03-30T10:30:01.808Z,24.29
2019-03-30T10:31:01.807Z,24.48
2019-03-30T10:32:01.807Z,24.77
2019-03-30T10:33:01.808Z,24.78
2019-03-30T10:34:01.798Z,24.74
2019-03-30T10:35:01.794Z,24.59
2019-03-30T10:36:01.797Z,24.43
2019-03-30T10:37:01.794Z,24.28
2019-03-30T10:38:01.783Z,24.01
2019-03-30T10:39:01.886Z,23.67
2019-03-30T10:40:01.774Z,23.81
2019-03-30T10:41:01.772Z,23.95
2019-03-30T10:42:01.780Z,23.91
2019-03-30T10:43:01.775Z,24.29
2019-03-30T10:44:01.761Z,24.92
2019-03-30T10:45:01.762Z,25.34
2019-03-30T10:46:01.777Z,25.15
2019-03-30T10:47:01.754Z,24.94
2019-03-30T10:48:01.755Z,24.82
2019-03-30T10:49:01.746Z,24.69
2019-03-30T10:50:01.741Z,24.88
2019-03-30T10:51:01.739Z,24.21
2019-03-30T10:52:01.736Z,24.32
2019-03-30T10:53:01.734Z,24.61
2019-03-30T10:54:01.727Z,24.62
2019-03-30T10:55:01.726Z,24.53
2019-03-30T10:56:01.728Z,24.36
2019-03-30T10:57:01.717Z,23.63
2019-03-30T10:58:01.722Z,23.02
2019-03-30T10:59:01.735Z,22.98
2019-03-30T11:00:01.722Z,23.08
2019-03-30T11:01:01.706Z,23.39
2019-03-30T11:02:01.698Z,23.33
2019-03-30T11:03:01.695Z,23.37
2019-03-30T11:04:01.693Z,22.93
2019-03-30T11:05:01.694Z,22.28
2019-03-30T11:06:01.685Z,21.56
2019-03-30T11:07:01.678Z,21.41
2019-03-30T11:08:01.674Z,21.51
2019-03-30T11:09:01.668Z,21.22
2019-03-30T11:10:01.663Z,20.96
2019-03-30T11:11:01.655Z,21.04
2019-03-30T11:12:01.658Z,20.96
2019-03-30T11:13:01.651Z,21.59
2019-03-30T11:14:01.632Z,22.18
2019-03-30T11:15:01.625Z,22.62
2019-03-30T11:16:01.623Z,22.93
2019-03-30T11:17:01.616Z,23.32
2019-03-30T11:18:01.610Z,23.55
2019-03-30T11:19:01.612Z,23.39
2019-03-30T11:20:01.602Z,23.16
2019-03-30T11:21:01.589Z,22.88
2019-03-30T11:22:03.161Z,22.71
2019-03-30T11:23:01.581Z,22.12
2019-03-30T11:24:01.567Z,21.58
2019-03-30T11:25:07.809Z,21.04
2019-03-30T11:26:01.595Z,20.83
2019-03-30T11:27:01.545Z,21.51
2019-03-30T11:28:01.543Z,21.97
2019-03-30T11:29:01.539Z,22.12
2019-03-30T11:30:01.525Z,21.65
2019-03-30T11:31:01.513Z,21.47
2019-03-30T11:32:01.536Z,21.20
2019-03-30T11:33:01.499Z,20.85
2019-03-30T11:34:01.506Z,20.92
2019-03-30T11:35:01.496Z,21.28
2019-03-30T11:36:01.488Z,21.32
2019-03-30T11:37:01.470Z,21.33
2019-03-30T11:38:01.449Z,21.88
2019-03-30T11:39:01.457Z,22.38
2019-03-30T11:40:01.437Z,22.34
2019-03-30T11:41:01.425Z,22.63
2019-03-30T11:42:01.427Z,23.08
2019-03-30T11:43:01.421Z,23.77
2019-03-30T11:44:01.440Z,23.82
2019-03-30T11:45:01.392Z,23.82
2019-03-30T11:46:01.394Z,24.10
2019-03-30T11:47:01.378Z,23.81
2019-03-30T11:48:01.363Z,23.33
2019-03-30T11:49:01.361Z,22.59
2019-03-30T11:50:01.352Z,21.96
2019-03-30T11:51:01.345Z,21.66
2019-03-30T11:52:01.337Z,22.10
2019-03-30T11:53:01.325Z,22.46
2019-03-30T11:54:01.310Z,22.70
2019-03-30T11:55:01.305Z,23.08
2019-03-30T11:56:01.294Z,23.40
2019-03-30T11:57:01.286Z,23.66
2019-03-30T11:58:01.275Z,23.84
2019-03-30T11:59:01.273Z,23.52
2019-03-30T12:00:01.278Z,23.58
2019-03-30T12:01:01.248Z,23.55
2019-03-30T12:02:01.239Z,23.51
2019-03-30T12:03:01.232Z,23.76
2019-03-30T12:04:01.219Z,23.77
2019-03-30T12:05:01.214Z,23.56
2019-03-30T12:06:01.316Z,23.42
2019-03-30T12:07:01.194Z,23.08
2019-03-30T12:08:01.190Z,23.10
2019-03-30T12:09:01.180Z,22.34
2019-03-30T12:10:01.163Z,21.84
2019-03-30T12:11:01.208Z,21.68
2019-03-30T12:12:01.143Z,21.50
2019-03-30T12:13:01.138Z,21.15
2019-03-30T12:14:01.123Z,20.80
2019-03-30T12:15:01.134Z,20.88
2019-03-30T12:16:01.115Z,21.58
2019-03-30T12:17:01.093Z,22.06
2019-03-30T12:18:01.081Z,22.31
2019-03-30T12:19:01.069Z,22.41
2019-03-30T12:20:01.062Z,22.36
2019-03-30T12:21:01.064Z,21.81
2019-03-30T12:22:01.090Z,21.54
2019-03-30T12:23:01.025Z,21.38
2019-03-30T12:24:01.015Z,21.32
2019-03-30T12:25:01.004Z,21.41
2019-03-30T12:26:01.013Z,21.35
2019-03-30T12:27:00.978Z,21.33
2019-03-30T12:28:00.977Z,21.05
2019-03-30T12:29:00.962Z,21.10
2019-03-30T12:30:00.992Z,21.25
2019-03-30T12:31:01.001Z,21.22
2019-03-30T12:32:00.927Z,20.92
2019-03-30T12:33:00.998Z,21.08
2019-03-30T12:34:00.901Z,20.83
2019-03-30T12:35:00.898Z,20.78
2019-03-30T12:36:00.867Z,20.73
2019-03-30T12:37:00.867Z,20.83
2019-03-30T12:38:00.842Z,21.05
2019-03-30T12:39:00.847Z,21.13
2019-03-30T12:40:00.817Z,21.05
2019-03-30T12:41:00.805Z,21.15
2019-03-30T12:42:00.803Z,21.22
2019-03-30T12:43:00.784Z,21.17
2019-03-30T12:44:00.767Z,20.98
2019-03-30T12:45:00.755Z,21.03
2019-03-30T12:46:00.739Z,21.08
2019-03-30T12:47:00.727Z,21.23
2019-03-30T12:48:00.713Z,21.10
2019-03-30T12:49:00.708Z,21.10
2019-03-30T12:50:00.721Z,21.07
2019-03-30T12:51:00.676Z,20.77
2019-03-30T12:52:00.686Z,20.85
2019-03-30T12:53:00.655Z,20.86
2019-03-30T12:54:00.642Z,20.95
2019-03-30T12:55:00.630Z,21.00
2019-03-30T12:56:00.610Z,21.00
2019-03-30T12:57:00.601Z,21.01
2019-03-30T12:58:00.583Z,20.96
2019-03-30T12:59:00.578Z,21.11
2019-03-30T13:00:00.563Z,21.04
2019-03-30T13:01:00.558Z,21.04
2019-03-30T13:02:00.535Z,20.93
2019-03-30T13:03:00.534Z,21.00